Portada
METAR-TAF:

METAR-TAF

Aeroports :

Sint Maarten, Antilles Neerlandeses

latitud: 18-03N, longitud: 063-07W, altitud: 4 m

Observació

L'informe es va fer fa 57 minuts, a les 19:00 UTC
Vent 12 kt del Est, variant entre Est/Nord-Est i Sud-Est
Temperatura 28°C
Humitat 70%
Pressió 1017 hPa
Visibilitat 10 km o més
Núvols disperses a una alçada de 2100 ft

METAR: TNCM 201900Z 10012KT 060V140 9999 SCT021 28/22 Q1017 A3004 NOSIG

Hora: 15:57 (19:57 UTC)

Pronòstic

L'informe es va fer fa 2 hores i 37 minuts, a les 17:20 UTC
Pronòstic vàlid del 20 a les 18 UTC al 21 a les 18 UTC
Vent 15 kt del Est
Visibilitat: 10 km
Núvols disperses a una alçada de 2000 ft
xàfecs en les proximitats
A partir de les 20 a les 2300 UTC
Vent 10 kt del Est
Visibilitat: 10 km
Núvols disperses a una alçada de 1800 ft

TAF: TNCM 201720Z 2018/2118 09015KT P6SM VCSH SCT020 FM202300 09010KT P6SM SCT018

Observacions i pronòstics meteorològics de més de 4000 aeroports (METAR i TAF).

Les estacions disponibles són els punts grocs i vermells al mapa.

Posi el ratolí al punt desitjat per veure el nom de l'estació.

Feu clic per veure les observacions i els pronòstics meteorològics.

Per canviar el mapa: feu clic els botons verds amb una creu de color negre per apropar; al botó verd amb un guió per allunyar la imatge; o en les fletxes verdes per a mapes adjacents.


METAR-TAF: